Terminal Aerodrome Forecast
Issued by NWS

Home | Current Version | Previous Version | Graphics & Text | Print | Product List | Glossary On
Versions: 1 2 3 4 5 6 7 8 9 10 11 12 13 14 15 16
000
FTUS43 KABR 271100 AAA
TAFPIR
TAF AMD
KPIR 271106Z 2711/2806 10010KT P6SM OVC025
     FM271500 12012KT P6SM OVC015
     FM280000 12008KT P6SM OVC050=

USA.gov is the U.S. government's official web portal to all federal, state and local government web resources and services.